createdAt,value
2018-07-23T00:00:32.143Z,19.60
2018-07-23T00:03:04.103Z,16.25
2018-07-23T00:05:38.734Z,17.02
2018-07-23T00:08:08.927Z,16.45
2018-07-23T00:10:41.434Z,21.08
2018-07-23T00:13:14.145Z,19.92
2018-07-23T00:15:45.577Z,20.42
2018-07-23T00:18:15.608Z,27.00
2018-07-23T00:20:50.396Z,20.58
2018-07-23T00:23:23.463Z,17.62
2018-07-23T00:25:58.327Z,17.67
2018-07-23T00:28:29.999Z,21.12
2018-07-23T00:31:02.927Z,23.40
2018-07-23T00:33:34.739Z,23.67
2018-07-23T00:36:07.875Z,21.17
2018-07-23T00:38:39.394Z,20.58
2018-07-23T00:41:12.779Z,20.45
2018-07-23T00:43:47.557Z,23.00
2018-07-23T00:46:17.762Z,22.67
2018-07-23T00:48:49.325Z,23.45
2018-07-23T00:51:22.595Z,23.33
2018-07-23T00:53:57.343Z,21.37
2018-07-23T00:56:31.993Z,21.45
2018-07-23T00:59:04.993Z,22.50
2018-07-23T01:01:38.913Z,21.70
2018-07-23T01:04:10.664Z,19.17
2018-07-23T01:06:45.519Z,19.50
2018-07-23T01:09:17.022Z,18.58
2018-07-23T01:11:51.163Z,19.52
2018-07-23T01:14:22.759Z,20.12
2018-07-23T01:16:56.028Z,20.50
2018-07-23T01:19:27.647Z,20.92
2018-07-23T01:21:57.603Z,21.73
2018-07-23T01:24:27.233Z,19.50
2018-07-23T01:27:01.007Z,21.83
2018-07-23T01:29:34.059Z,25.27
2018-07-23T01:32:07.095Z,18.25
2018-07-23T01:34:39.479Z,21.60
2018-07-23T01:37:09.534Z,24.40
2018-07-23T01:39:41.333Z,20.70
2018-07-23T01:42:12.915Z,18.23
2018-07-23T01:44:43.462Z,19.55
2018-07-23T01:47:16.508Z,21.17
2018-07-23T01:49:51.167Z,21.45
2018-07-23T01:52:25.750Z,21.27
2018-07-23T01:54:58.879Z,23.33
2018-07-23T01:57:30.539Z,23.05
2018-07-23T02:00:02.476Z,19.98
2018-07-23T02:02:35.049Z,22.35
2018-07-23T02:05:08.314Z,22.27
2018-07-23T02:07:41.367Z,19.67
2018-07-23T02:10:12.895Z,18.23
2018-07-23T02:12:45.002Z,16.90
2018-07-23T02:15:16.741Z,18.30
2018-07-23T02:17:50.220Z,19.95
2018-07-23T02:20:21.765Z,17.02
2018-07-23T02:22:54.773Z,16.67
2018-07-23T02:25:29.329Z,20.05
2018-07-23T02:28:00.897Z,19.75
2018-07-23T02:30:33.990Z,19.37
2018-07-23T02:33:03.949Z,18.27
2018-07-23T02:35:39.067Z,19.55
2018-07-23T02:38:10.741Z,17.98
2018-07-23T02:40:42.947Z,28.30
2018-07-23T02:43:14.418Z,28.35
2018-07-23T02:45:46.290Z,25.75
2018-07-23T02:48:17.807Z,22.95
2018-07-23T02:50:51.076Z,19.73
2018-07-23T02:53:25.839Z,20.33
2018-07-23T02:55:58.992Z,22.48
2018-07-23T02:58:33.107Z,23.48
2018-07-23T03:01:04.324Z,22.90
2018-07-23T03:03:34.228Z,22.00
2018-07-23T03:06:08.983Z,25.17
2018-07-23T03:08:43.802Z,21.90
2018-07-23T03:11:16.836Z,21.67
2018-07-23T03:13:49.855Z,20.95
2018-07-23T03:16:21.937Z,27.05
2018-07-23T03:18:53.532Z,23.75
2018-07-23T03:21:25.282Z,29.58
2018-07-23T03:23:58.515Z,23.10
2018-07-23T03:26:30.077Z,23.33
2018-07-23T03:29:00.175Z,22.75
2018-07-23T03:31:33.287Z,27.00
2018-07-23T03:34:06.327Z,21.40
2018-07-23T03:36:37.804Z,24.25
2018-07-23T03:39:14.361Z,22.73
2018-07-23T03:41:49.041Z,24.90
2018-07-23T03:44:22.960Z,24.70
2018-07-23T03:46:56.531Z,26.37
2018-07-23T03:49:29.687Z,23.10
2018-07-23T03:52:02.139Z,31.40
2018-07-23T03:54:35.251Z,24.70
2018-07-23T03:57:06.833Z,35.63
2018-07-23T03:59:40.207Z,32.13
2018-07-23T04:02:14.371Z,29.40
2018-07-23T04:04:46.807Z,31.15
2018-07-23T04:07:19.052Z,27.90
2018-07-23T04:09:49.144Z,36.10
2018-07-23T04:12:22.368Z,27.98
2018-07-23T04:14:53.828Z,26.70
2018-07-23T04:17:27.249Z,27.30
2018-07-23T04:20:00.326Z,33.75
2018-07-23T04:22:32.029Z,30.35
2018-07-23T04:25:03.217Z,25.50
2018-07-23T04:27:36.287Z,27.50
2018-07-23T04:30:10.887Z,27.80
2018-07-23T04:32:45.375Z,27.40
2018-07-23T04:35:18.420Z,27.37
2018-07-23T04:37:51.391Z,23.30
2018-07-23T04:40:24.746Z,24.15
2018-07-23T04:42:56.310Z,26.67
2018-07-23T04:45:31.201Z,32.67
2018-07-23T04:48:01.723Z,26.60
2018-07-23T04:50:31.747Z,26.67
2018-07-23T04:53:01.748Z,29.35
2018-07-23T04:55:33.253Z,23.90
2018-07-23T04:58:06.289Z,22.98
2018-07-23T05:00:39.216Z,28.35
2018-07-23T05:03:10.779Z,23.00
2018-07-23T05:05:43.941Z,23.02
2018-07-23T05:08:16.978Z,23.30
2018-07-23T05:10:48.554Z,25.40
2018-07-23T05:13:21.049Z,22.67
2018-07-23T05:15:54.087Z,26.58
2018-07-23T05:18:26.964Z,22.77
2018-07-23T05:20:58.444Z,22.83
2018-07-23T05:23:31.411Z,21.65
2018-07-23T05:26:01.408Z,22.13
2018-07-23T05:28:34.320Z,20.85
2018-07-23T05:31:04.436Z,21.25
2018-07-23T05:33:35.915Z,22.10
2018-07-23T05:36:10.478Z,22.95
2018-07-23T05:38:41.320Z,23.60
2018-07-23T05:41:14.146Z,24.05
2018-07-23T05:43:47.098Z,27.25
2018-07-23T05:46:20.171Z,24.05
2018-07-23T05:48:52.410Z,23.85
2018-07-23T05:51:24.063Z,22.70
2018-07-23T05:53:55.629Z,20.55
2018-07-23T05:56:27.237Z,21.50
2018-07-23T05:58:58.872Z,22.77
2018-07-23T06:01:31.811Z,20.80
2018-07-23T06:04:05.552Z,20.20
2018-07-23T06:06:37.322Z,26.05
2018-07-23T06:09:12.764Z,23.85
2018-07-23T06:11:44.434Z,20.80
2018-07-23T06:14:17.350Z,20.02
2018-07-23T06:16:48.868Z,19.65
2018-07-23T06:19:19.697Z,22.48
2018-07-23T06:21:54.401Z,24.65
2018-07-23T06:24:26.023Z,16.70
2018-07-23T06:26:58.948Z,19.02
2018-07-23T06:29:31.988Z,17.98
2018-07-23T06:32:04.844Z,20.80
2018-07-23T06:34:37.930Z,21.08
2018-07-23T06:37:11.052Z,21.42
2018-07-23T06:39:44.090Z,20.45
2018-07-23T06:42:18.399Z,20.65
2018-07-23T06:44:51.400Z,19.62
2018-07-23T06:47:23.125Z,16.65
2018-07-23T06:49:54.724Z,18.25
2018-07-23T06:52:24.699Z,16.55
2018-07-23T06:54:59.153Z,16.33
2018-07-23T06:57:30.835Z,16.65
2018-07-23T07:00:03.721Z,19.17
2018-07-23T07:02:38.244Z,17.90
2018-07-23T07:05:09.610Z,17.65
2018-07-23T07:07:42.632Z,15.38
2018-07-23T07:10:15.676Z,13.30
2018-07-23T07:12:45.537Z,18.02
2018-07-23T07:15:18.631Z,17.83
2018-07-23T07:17:50.060Z,16.27
2018-07-23T07:20:20.632Z,18.87
2018-07-23T07:22:53.549Z,19.90
2018-07-23T07:25:25.439Z,18.55
2018-07-23T07:27:58.267Z,16.48
2018-07-23T07:30:32.651Z,18.12
2018-07-23T07:33:05.566Z,18.17
2018-07-23T07:35:35.479Z,16.62
2018-07-23T07:38:07.186Z,16.33
2018-07-23T07:40:36.920Z,18.58
2018-07-23T07:43:08.898Z,17.80
2018-07-23T07:45:42.216Z,16.12
2018-07-23T07:48:12.354Z,17.80
2018-07-23T07:50:45.348Z,18.52
2018-07-23T07:53:16.848Z,17.92
2018-07-23T07:55:48.228Z,16.90
2018-07-23T07:58:21.151Z,18.42
2018-07-23T08:00:54.020Z,17.83
2018-07-23T08:03:27.041Z,22.55
2018-07-23T08:05:58.490Z,19.58
2018-07-23T08:08:28.841Z,19.17
2018-07-23T08:11:03.170Z,21.08
2018-07-23T08:13:37.655Z,21.73
2018-07-23T08:16:12.000Z,20.02
2018-07-23T08:18:45.328Z,20.45
2018-07-23T08:21:18.421Z,21.37
2018-07-23T08:24:36.819Z,21.83
2018-07-23T08:27:09.953Z,17.10
2018-07-23T08:29:39.924Z,18.02
2018-07-23T08:32:14.495Z,17.42
2018-07-23T08:34:45.838Z,18.77
2018-07-23T08:37:19.049Z,17.37
2018-07-23T08:39:50.563Z,19.27
2018-07-23T08:42:24.412Z,18.67
2018-07-23T08:44:57.822Z,18.95
2018-07-23T08:47:27.757Z,19.62
2018-07-23T08:49:59.169Z,19.12
2018-07-23T08:52:30.601Z,19.80
2018-07-23T08:55:03.629Z,19.45
2018-07-23T08:57:34.992Z,19.10
2018-07-23T09:00:07.854Z,17.80
2018-07-23T09:02:41.214Z,20.45
2018-07-23T09:05:14.586Z,18.40
2018-07-23T09:07:47.461Z,19.45
2018-07-23T09:10:19.668Z,19.12
2018-07-23T09:12:51.130Z,18.55
2018-07-23T09:15:22.837Z,20.58
2018-07-23T09:17:55.708Z,19.60
2018-07-23T09:20:27.287Z,17.50
2018-07-23T09:22:57.196Z,19.83
2018-07-23T09:25:46.543Z,15.45
2018-07-23T09:28:20.361Z,16.33
2018-07-23T09:30:58.610Z,15.45
2018-07-23T09:33:30.145Z,20.27
2018-07-23T09:36:00.904Z,21.57
2018-07-23T09:38:34.073Z,17.58
2018-07-23T09:41:06.994Z,19.42
2018-07-23T09:43:38.392Z,19.17
2018-07-23T09:46:10.143Z,17.00
2018-07-23T09:48:41.627Z,19.02
2018-07-23T09:51:12.994Z,21.90
2018-07-23T09:53:44.427Z,19.75
2018-07-23T09:56:14.421Z,17.45
2018-07-23T09:58:45.804Z,18.17
2018-07-23T10:01:20.880Z,16.30
2018-07-23T10:03:53.969Z,17.55
2018-07-23T10:06:25.354Z,15.93
2018-07-23T10:08:56.094Z,19.20
2018-07-23T10:11:28.229Z,14.82
2018-07-23T10:13:59.651Z,16.77
2018-07-23T10:16:34.120Z,16.83
2018-07-23T10:19:07.248Z,15.48
2018-07-23T10:21:38.730Z,12.85
2018-07-23T10:24:10.286Z,14.55
2018-07-23T10:26:41.661Z,11.20
2018-07-23T10:29:11.673Z,13.62
2018-07-23T10:31:43.667Z,12.45
2018-07-23T10:34:16.309Z,12.10
2018-07-23T10:36:46.774Z,13.02
2018-07-23T10:39:16.800Z,11.40
2018-07-23T10:41:48.264Z,12.60
2018-07-23T10:44:18.670Z,10.65
2018-07-23T10:46:50.091Z,11.15
2018-07-23T10:49:22.974Z,13.98
2018-07-23T10:51:57.371Z,11.65
2018-07-23T10:54:28.230Z,8.80
2018-07-23T10:57:00.370Z,11.15
2018-07-23T10:59:32.302Z,11.02
2018-07-23T11:02:05.126Z,8.30
2018-07-23T11:04:35.134Z,8.32
2018-07-23T11:07:08.102Z,9.35
2018-07-23T11:09:39.539Z,8.80
2018-07-23T11:12:12.536Z,10.55
2018-07-23T11:14:45.477Z,13.35
2018-07-23T11:17:17.123Z,9.93
2018-07-23T11:19:49.729Z,10.25
2018-07-23T11:22:24.016Z,10.25
2018-07-23T11:24:57.393Z,13.27
2018-07-23T11:27:30.062Z,12.95
2018-07-23T11:30:02.902Z,12.30
2018-07-23T11:32:36.076Z,10.48
2018-07-23T11:35:09.091Z,10.70
2018-07-23T11:37:42.010Z,11.85
2018-07-23T11:40:13.410Z,11.80
2018-07-23T11:42:43.441Z,9.50
2018-07-23T11:45:13.519Z,7.70
2018-07-23T11:47:43.539Z,8.88
2018-07-23T11:50:16.451Z,8.98
2018-07-23T11:52:47.983Z,7.75
2018-07-23T11:55:21.788Z,7.40
2018-07-23T11:57:54.742Z,7.95
2018-07-23T12:00:27.784Z,9.55
2018-07-23T12:03:02.406Z,10.65
2018-07-23T12:05:33.319Z,12.37
2018-07-23T12:08:06.137Z,9.40
2018-07-23T12:10:36.946Z,9.73
2018-07-23T12:13:08.432Z,9.23
2018-07-23T12:15:39.859Z,8.23
2018-07-23T12:18:13.357Z,9.90
2018-07-23T12:20:44.778Z,9.88
2018-07-23T12:23:16.134Z,7.28
2018-07-23T12:25:49.149Z,6.97
2018-07-23T12:28:20.646Z,7.75
2018-07-23T12:30:53.252Z,5.95
2018-07-23T12:33:23.249Z,6.03
2018-07-23T12:35:56.173Z,7.12
2018-07-23T12:38:26.240Z,7.10
2018-07-23T12:40:58.223Z,6.55
2018-07-23T12:43:28.648Z,7.07
2018-07-23T12:46:01.525Z,6.45
2018-07-23T12:48:32.115Z,6.72
2018-07-23T12:51:04.932Z,10.00
2018-07-23T12:53:37.990Z,13.35
2018-07-23T12:56:09.677Z,9.55
2018-07-23T12:58:39.571Z,7.68
2018-07-23T13:01:12.681Z,7.25
2018-07-23T13:03:46.046Z,6.55
2018-07-23T13:06:18.299Z,6.35
2018-07-23T13:08:49.068Z,4.07
2018-07-23T13:11:22.090Z,4.28
2018-07-23T13:13:53.183Z,5.65
2018-07-23T13:16:26.119Z,4.03
2018-07-23T13:18:57.681Z,5.07
2018-07-23T13:21:29.305Z,3.42
2018-07-23T13:24:02.270Z,3.00
2018-07-23T13:26:33.649Z,4.82
2018-07-23T13:29:05.018Z,4.68
2018-07-23T13:31:38.092Z,3.65
2018-07-23T13:34:09.415Z,6.15
2018-07-23T13:36:43.997Z,4.43
2018-07-23T13:39:15.580Z,3.70
2018-07-23T13:41:45.599Z,4.20
2018-07-23T13:44:17.057Z,4.82
2018-07-23T13:46:48.609Z,4.37
2018-07-23T13:49:21.496Z,4.82
2018-07-23T13:51:53.125Z,6.00
2018-07-23T13:54:24.079Z,5.15
2018-07-23T13:56:58.306Z,4.87
2018-07-23T13:59:30.324Z,3.90
2018-07-23T14:01:59.512Z,3.47
2018-07-23T14:04:28.865Z,4.25
2018-07-23T14:07:03.324Z,4.75
2018-07-23T14:09:36.239Z,4.62
2018-07-23T14:12:07.790Z,4.10
2018-07-23T14:14:37.856Z,4.97
2018-07-23T14:17:09.245Z,4.07
2018-07-23T14:19:40.713Z,4.45
2018-07-23T14:22:13.733Z,4.95
2018-07-23T14:24:46.654Z,4.32
2018-07-23T14:27:18.231Z,4.57
2018-07-23T14:29:52.647Z,4.20
2018-07-23T14:32:28.017Z,4.78
2018-07-23T14:35:01.083Z,4.45
2018-07-23T14:37:33.293Z,4.70
2018-07-23T14:40:06.391Z,4.22
2018-07-23T14:42:37.776Z,5.03
2018-07-23T14:45:10.215Z,4.85
2018-07-23T14:47:41.753Z,4.10
2018-07-23T14:50:15.369Z,6.47
2018-07-23T14:52:47.910Z,5.18
2018-07-23T14:55:20.956Z,5.68
2018-07-23T14:57:50.970Z,5.25
2018-07-23T15:00:24.295Z,4.35
2018-07-23T15:02:56.602Z,4.35
2018-07-23T15:05:26.552Z,3.87
2018-07-23T15:07:57.943Z,4.78
2018-07-23T15:10:32.405Z,4.93
2018-07-23T15:13:05.283Z,3.97
2018-07-23T15:15:38.704Z,3.87
2018-07-23T15:18:10.745Z,4.00
2018-07-23T15:20:41.176Z,3.90
2018-07-23T15:23:14.121Z,4.80
2018-07-23T15:25:47.610Z,4.80
2018-07-23T15:28:19.264Z,5.32
2018-07-23T15:30:52.117Z,6.22
2018-07-23T15:33:25.498Z,4.32
2018-07-23T15:35:56.002Z,10.45
2018-07-23T15:38:29.028Z,5.15
2018-07-23T15:41:03.579Z,9.07
2018-07-23T15:43:37.073Z,8.50
2018-07-23T15:46:08.631Z,6.43
2018-07-23T15:55:11.445Z,5.18
2018-07-23T15:57:35.440Z,5.03
2018-07-23T16:00:07.636Z,4.50
2018-07-23T16:03:22.635Z,4.53
2018-07-23T16:05:55.518Z,7.00
2018-07-23T16:08:25.337Z,5.57
2018-07-23T16:10:58.189Z,7.15
2018-07-23T16:13:31.111Z,5.00
2018-07-23T16:16:00.234Z,4.43
2018-07-23T16:18:33.330Z,5.72
2018-07-23T16:21:02.604Z,6.80
2018-07-23T16:23:35.336Z,5.87
2018-07-23T16:26:06.273Z,4.80
2018-07-23T16:28:38.602Z,5.00
2018-07-23T16:31:10.203Z,4.37
2018-07-23T16:33:40.139Z,4.95
2018-07-23T16:36:13.071Z,5.22
2018-07-23T16:38:44.433Z,5.50
2018-07-23T16:41:15.766Z,5.07
2018-07-23T16:43:47.702Z,4.43
2018-07-23T16:46:21.122Z,4.60
2018-07-23T16:48:51.159Z,5.18
2018-07-23T16:51:21.110Z,4.68
2018-07-23T16:53:52.298Z,5.12
2018-07-23T16:56:24.393Z,4.18
2018-07-23T16:58:54.336Z,5.07
2018-07-23T17:01:25.245Z,7.65
2018-07-23T17:03:56.823Z,4.87
2018-07-23T17:06:28.677Z,5.20
2018-07-23T17:09:00.433Z,5.32
2018-07-23T17:11:34.669Z,7.80
2018-07-23T17:14:07.523Z,6.95
2018-07-23T17:16:37.539Z,4.00
2018-07-23T17:19:10.677Z,3.90
2018-07-23T17:21:41.554Z,4.20
2018-07-23T17:24:12.888Z,6.20
2018-07-23T17:26:47.427Z,4.93
2018-07-23T17:29:21.190Z,4.00
2018-07-23T17:31:52.087Z,4.50
2018-07-23T17:34:24.263Z,4.87
2018-07-23T17:36:55.646Z,5.43
2018-07-23T17:39:27.066Z,9.57
2018-07-23T17:41:56.192Z,6.35
2018-07-23T17:44:27.109Z,4.85
2018-07-23T17:46:58.854Z,7.18
2018-07-23T17:49:31.882Z,4.70
2018-07-23T17:52:03.428Z,6.87
2018-07-23T17:54:35.477Z,4.45
2018-07-23T17:57:08.877Z,5.32
2018-07-23T17:59:41.822Z,5.47
2018-07-23T18:02:14.725Z,5.45
2018-07-23T18:04:47.475Z,6.80
2018-07-23T18:07:17.323Z,9.38
2018-07-23T18:09:50.116Z,5.18
2018-07-23T18:12:22.718Z,5.12
2018-07-23T18:14:53.065Z,4.15
2018-07-23T18:17:26.137Z,10.38
2018-07-23T18:19:58.936Z,4.72
2018-07-23T18:22:30.255Z,9.52
2018-07-23T18:25:01.781Z,4.78
2018-07-23T18:27:35.616Z,5.10
2018-07-23T18:30:10.489Z,4.78
2018-07-23T18:32:41.999Z,5.68
2018-07-23T18:35:14.841Z,4.82
2018-07-23T18:37:46.773Z,5.00
2018-07-23T18:40:18.280Z,5.68
2018-07-23T18:42:48.942Z,7.25
2018-07-23T18:45:19.192Z,5.45
2018-07-23T18:47:52.075Z,4.30
2018-07-23T18:50:25.182Z,5.07
2018-07-23T18:52:57.982Z,5.12
2018-07-23T18:55:30.803Z,6.45
2018-07-23T18:58:02.778Z,11.90
2018-07-23T19:00:34.829Z,8.30
2018-07-23T19:03:05.249Z,6.05
2018-07-23T19:05:35.681Z,17.35
2018-07-23T19:08:06.407Z,15.95
2018-07-23T19:10:35.749Z,7.82
2018-07-23T19:13:08.625Z,5.18
2018-07-23T19:15:39.408Z,5.82
2018-07-23T19:18:10.927Z,7.00
2018-07-23T19:20:40.784Z,4.87
2018-07-23T19:23:15.119Z,10.75
2018-07-23T19:25:45.867Z,14.20
2018-07-23T19:28:17.431Z,4.90
2018-07-23T19:30:47.389Z,6.80
2018-07-23T19:33:19.331Z,6.93
2018-07-23T19:35:50.786Z,4.82
2018-07-23T19:38:23.731Z,6.77
2018-07-23T19:40:53.755Z,8.00
2018-07-23T19:43:25.068Z,5.30
2018-07-23T19:45:55.424Z,6.12
2018-07-23T19:48:27.638Z,8.85
2018-07-23T19:51:01.310Z,11.73
2018-07-23T19:53:34.565Z,12.82
2018-07-23T19:56:07.132Z,17.50
2018-07-23T19:58:41.449Z,26.05
2018-07-23T20:01:14.464Z,20.73
2018-07-23T20:03:44.457Z,7.07
2018-07-23T20:06:13.553Z,5.45
2018-07-23T20:08:43.753Z,6.03
2018-07-23T20:11:12.966Z,5.75
2018-07-23T20:13:45.824Z,8.10
2018-07-23T20:16:17.417Z,6.50
2018-07-23T20:18:48.873Z,6.22
2018-07-23T20:21:23.208Z,3.37
2018-07-23T20:23:56.222Z,4.07
2018-07-23T20:26:26.652Z,3.83
2018-07-23T20:29:00.856Z,3.50
2018-07-23T20:31:33.161Z,5.37
2018-07-23T20:34:04.877Z,5.18
2018-07-23T20:36:34.849Z,5.43
2018-07-23T20:39:06.422Z,3.97
2018-07-23T20:41:37.261Z,5.22
2018-07-23T20:44:10.219Z,4.28
2018-07-23T20:46:43.420Z,5.37
2018-07-23T20:49:16.796Z,6.35
2018-07-23T20:51:49.909Z,4.20
2018-07-23T20:54:21.024Z,9.25
2018-07-23T20:56:52.435Z,6.93
2018-07-23T20:59:24.945Z,5.25
2018-07-23T21:01:58.276Z,7.15
2018-07-23T21:04:31.293Z,6.43
2018-07-23T21:07:02.812Z,6.43
2018-07-23T21:09:35.968Z,7.53
2018-07-23T21:12:09.553Z,10.38
2018-07-23T21:14:40.451Z,8.75
2018-07-23T21:17:14.108Z,11.02
2018-07-23T21:19:47.118Z,7.45
2018-07-23T21:22:20.700Z,9.82
2018-07-23T21:24:52.133Z,9.18
2018-07-23T21:27:23.566Z,7.20
2018-07-23T21:29:55.547Z,9.35
2018-07-23T21:32:28.728Z,8.05
2018-07-23T21:35:00.048Z,9.35
2018-07-23T21:37:31.767Z,8.05
2018-07-23T21:40:05.107Z,9.30
2018-07-23T21:42:35.249Z,10.60
2018-07-23T21:45:05.378Z,7.47
2018-07-23T21:47:40.250Z,7.30
2018-07-23T21:50:13.191Z,7.85
2018-07-23T21:52:44.773Z,8.38
2018-07-23T21:55:16.288Z,8.10
2018-07-23T21:57:48.826Z,8.48
2018-07-23T22:00:18.848Z,8.40
2018-07-23T22:02:50.265Z,7.97
2018-07-23T22:05:23.045Z,8.55
2018-07-23T22:07:55.839Z,9.00
2018-07-23T22:10:30.176Z,9.07
2018-07-23T22:13:03.317Z,10.95
2018-07-23T22:15:33.868Z,7.75
2018-07-23T22:18:07.064Z,6.90
2018-07-23T22:20:39.362Z,8.77
2018-07-23T22:23:10.752Z,7.55
2018-07-23T22:25:42.191Z,7.00
2018-07-23T22:28:15.122Z,7.75
2018-07-23T22:30:46.334Z,6.90
2018-07-23T22:33:16.303Z,7.78
2018-07-23T22:35:50.691Z,6.43
2018-07-23T22:38:25.383Z,8.43
2018-07-23T22:40:57.570Z,6.65
2018-07-23T22:43:28.922Z,7.65
2018-07-23T22:46:00.680Z,10.70
2018-07-23T22:48:33.584Z,6.45
2018-07-23T22:51:06.727Z,8.90
2018-07-23T22:53:39.609Z,7.43
2018-07-23T22:56:11.046Z,6.68
2018-07-23T22:58:43.248Z,5.85
2018-07-23T23:01:17.117Z,8.15
2018-07-23T23:03:49.177Z,9.68
2018-07-23T23:06:19.828Z,5.18
2018-07-23T23:08:52.689Z,7.10
2018-07-23T23:11:24.153Z,6.15
2018-07-23T23:13:56.145Z,6.00
2018-07-23T23:16:26.618Z,6.95
2018-07-23T23:18:59.524Z,16.60
2018-07-23T23:21:30.964Z,9.00
2018-07-23T23:24:03.872Z,11.95
2018-07-23T23:26:35.348Z,8.93
2018-07-23T23:29:08.394Z,7.22
2018-07-23T23:31:41.304Z,8.60
2018-07-23T23:34:14.196Z,7.05
2018-07-23T23:36:47.242Z,8.82
2018-07-23T23:39:16.470Z,7.18
2018-07-23T23:41:50.835Z,8.20
2018-07-23T23:44:22.319Z,7.97
2018-07-23T23:46:55.327Z,8.43
2018-07-23T23:49:29.228Z,8.10
2018-07-23T23:52:02.684Z,9.20
2018-07-23T23:54:35.596Z,11.23
2018-07-23T23:57:08.513Z,9.77
2018-07-23T23:59:39.291Z,8.05
